Time;durP1;ratioP1;P1;durP2;ratioP2;P2;SDS_P1;SDS_P2;PMS_P1;PMS_P2;Temp;Humidity;BMP_temperature;BMP_pressure;BME280_temperature;BME280_humidity;BME280_pressure;Samples;Min_cycle;Max_cycle;Signal;HPM_P1;HPM_P2
2023/05/24 00:01:10;;;;;;;;;;;;;;;;;;5037772;28;19920;-21
2023/05/24 00:03:38;;;;;;;;;;;;;;;;;;5037482;28;19921;-19
2023/05/24 00:06:05;;;;;;;;;;;;;;;;;;5037987;28;19909;-21
2023/05/24 00:08:31;;;;;;;;;;;;;;;;;;5038283;28;20020;-22
2023/05/24 00:10:57;;;;;;;;;;;;;;;;;;5037820;28;20292;-21
2023/05/24 00:13:23;;;;;;;;;;;;;;;;;;5036617;28;19910;-21
2023/05/24 00:15:49;;;;;;;;;;;;;;;;;;5037580;28;20240;-20
2023/05/24 00:18:18;;;;;;;;;;;;;;;;;;5037787;28;19943;-21
2023/05/24 00:20:44;;;;;;;;;;;;;;;;;;5037435;28;20031;-20
2023/05/24 00:23:10;;;;;;;;;;;;;;;;;;5037356;28;20356;-23
2023/05/24 00:25:36;;;;;;;;;;;;;;;;;;5036366;28;19909;-19
2023/05/24 00:28:02;;;;;;;;;;;;;;;;;;5037287;28;19963;-20
2023/05/24 00:30:28;;;;;;;;;;;;;;;;;;5036301;28;19921;-20
2023/05/24 00:32:54;;;;;;;;;;;;;;;;;;5036195;28;19937;-20
2023/05/24 00:35:20;;;;;;;;;;;;;;;;;;5037151;28;20408;-22
2023/05/24 00:37:46;;;;;;;;;;;;;;;;;;5037313;28;19939;-21
2023/05/24 00:40:12;;;;;;;;;;;;;;;;;;5037302;28;19913;-21
2023/05/24 00:42:38;;;;;;;;;;;;;;;;;;5037119;28;19909;-22
2023/05/24 00:45:05;;;;;;;;;;;;;;;;;;5037242;28;19915;-19
2023/05/24 00:47:31;;;;;;;;;;;;;;;;;;5036986;28;20358;-20
2023/05/24 00:49:57;;;;;;;;;;;;;;;;;;5035917;28;19992;-22
2023/05/24 00:52:23;;;;;;;;;;;;;;;;;;5037173;28;19917;-21
2023/05/24 00:54:49;;;;;;;;;;;;;;;;;;5036805;28;20312;-21
2023/05/24 00:57:15;;;;;;;;;;;;;;;;;;5037082;28;19924;-21
2023/05/24 00:59:41;;;;;;;;;;;;;;;;;;5037087;28;20224;-22
2023/05/24 01:02:07;;;;;;;;;;;;;;;;;;5036514;28;20291;-19
2023/05/24 01:04:33;;;;;;;;;;;;;;;;;;5036724;28;20190;-21
2023/05/24 01:06:59;;;;;;;;;;;;;;;;;;5036580;28;20012;-21
2023/05/24 01:09:25;;;;;;;;;;;;;;;;;;5036848;28;19924;-24
2023/05/24 01:11:51;;;;;;;;;;;;;;;;;;5036416;28;19966;-21
2023/05/24 01:14:17;;;;;;;;;;;;;;;;;;5036743;28;19909;-22
2023/05/24 01:16:45;;;;;;;;;;;;;;;;;;5036399;28;19916;-21
2023/05/24 01:19:12;;;;;;;;;;;;;;;;;;5036711;28;20018;-21
2023/05/24 01:21:38;;;;;;;;;;;;;;;;;;5036221;28;19923;-21
2023/05/24 01:24:04;;;;;;;;;;;;;;;;;;5036233;28;20256;-22
2023/05/24 01:26:30;;;;;;;;;;;;;;;;;;5036535;28;19917;-21
2023/05/24 01:28:56;;;;;;;;;;;;;;;;;;5036175;28;20423;-20
2023/05/24 01:31:22;;;;;;;;;;;;;;;;;;5036459;28;19931;-20
2023/05/24 01:33:48;;;;;;;;;;;;;;;;;;5036075;28;19987;-22
2023/05/24 01:36:14;;;;;;;;;;;;;;;;;;5036086;28;19983;-22
2023/05/24 01:38:40;;;;;;;;;;;;;;;;;;5035090;28;19956;-20
2023/05/24 01:41:06;;;;;;;;;;;;;;;;;;5035928;28;20271;-22
2023/05/24 01:43:32;;;;;;;;;;;;;;;;;;5035935;28;19909;-20
2023/05/24 01:45:58;;;;;;;;;;;;;;;;;;5036192;28;19980;-19
2023/05/24 01:48:24;;;;;;;;;;;;;;;;;;5036033;28;20344;-19
2023/05/24 01:50:50;;;;;;;;;;;;;;;;;;5035655;28;20336;-27
2023/05/24 01:53:16;;;;;;;;;;;;;;;;;;5035645;28;19909;-21
2023/05/24 01:55:42;;;;;;;;;;;;;;;;;;5035713;28;19909;-21
2023/05/24 01:58:08;;;;;;;;;;;;;;;;;;5035677;28;19932;-22
2023/05/24 02:00:34;;;;;;;;;;;;;;;;;;5035459;28;19913;-22
2023/05/24 02:03:01;;;;;;;;;;;;;;;;;;5034265;28;19949;-20
2023/05/24 02:05:26;;;;;;;;;;;;;;;;;;5034560;28;19913;-19
2023/05/24 02:07:52;;;;;;;;;;;;;;;;;;5035423;28;19975;-20
2023/05/24 02:10:18;;;;;;;;;;;;;;;;;;5035463;28;19909;-22
2023/05/24 02:12:44;;;;;;;;;;;;;;;;;;5035476;28;19917;-22
2023/05/24 02:15:13;;;;;;;;;;;;;;;;;;5035324;28;20320;-21
2023/05/24 02:17:39;;;;;;;;;;;;;;;;;;5035388;28;19909;-22
2023/05/24 02:20:05;;;;;;;;;;;;;;;;;;5034971;28;19928;-22
2023/05/24 02:22:31;;;;;;;;;;;;;;;;;;5035187;28;19909;-21
2023/05/24 02:24:57;;;;;;;;;;;;;;;;;;5035129;28;19976;-21
2023/05/24 02:27:23;;;;;;;;;;;;;;;;;;5035073;28;19909;-20
2023/05/24 02:29:49;;;;;;;;;;;;;;;;;;5035330;28;19980;-20
2023/05/24 02:32:15;;;;;;;;;;;;;;;;;;5034942;28;19917;-20
2023/05/24 02:34:41;;;;;;;;;;;;;;;;;;5035001;28;20011;-22
2023/05/24 02:37:07;;;;;;;;;;;;;;;;;;5034961;28;19952;-19
2023/05/24 02:39:33;;;;;;;;;;;;;;;;;;5034913;28;19939;-21
2023/05/24 02:41:59;;;;;;;;;;;;;;;;;;5034815;28;20013;-22
2023/05/24 02:44:25;;;;;;;;;;;;;;;;;;5033887;28;19913;-22
2023/05/24 02:46:51;;;;;;;;;;;;;;;;;;5034784;28;19971;-20
2023/05/24 02:49:17;;;;;;;;;;;;;;;;;;5034814;28;20008;-20
2023/05/24 02:51:43;;;;;;;;;;;;;;;;;;5035000;28;19909;-23
2023/05/24 02:54:09;;;;;;;;;;;;;;;;;;5034643;28;19909;-19
2023/05/24 02:56:36;;;;;;;;;;;;;;;;;;5034758;28;19921;-21
2023/05/24 02:59:02;;;;;;;;;;;;;;;;;;5034908;28;19909;-22
2023/05/24 03:01:28;;;;;;;;;;;;;;;;;;5034894;28;20063;-21
2023/05/24 03:03:54;;;;;;;;;;;;;;;;;;5034428;28;19987;-22
2023/05/24 03:06:20;;;;;;;;;;;;;;;;;;5034552;28;19924;-20
2023/05/24 03:08:48;;;;;;;;;;;;;;;;;;5034708;28;19920;-21
2023/05/24 03:11:14;;;;;;;;;;;;;;;;;;5033524;28;19919;-20
2023/05/24 03:13:40;;;;;;;;;;;;;;;;;;5034633;28;19920;-19
2023/05/24 03:16:06;;;;;;;;;;;;;;;;;;5034673;28;20297;-19
2023/05/24 03:18:32;;;;;;;;;;;;;;;;;;5034453;28;19971;-21
2023/05/24 03:20:58;;;;;;;;;;;;;;;;;;5034329;28;19939;-22
2023/05/24 03:23:24;;;;;;;;;;;;;;;;;;5034312;28;19920;-22
2023/05/24 03:25:50;;;;;;;;;;;;;;;;;;5034568;28;19939;-22
2023/05/24 03:28:16;;;;;;;;;;;;;;;;;;5034354;28;19913;-31
2023/05/24 03:30:41;;;;;;;;;;;;;;;;;;5034683;28;20331;-20
2023/05/24 03:33:07;;;;;;;;;;;;;;;;;;5038341;28;20229;-22
2023/05/24 03:35:33;;;;;;;;;;;;;;;;;;5038259;28;20190;-21
2023/05/24 03:37:59;;;;;;;;;;;;;;;;;;5038207;28;19910;-22
2023/05/24 03:40:28;;;;;;;;;;;;;;;;;;5038121;28;19964;-20
2023/05/24 03:42:54;;;;;;;;;;;;;;;;;;5037992;28;19913;-22
2023/05/24 03:45:20;;;;;;;;;;;;;;;;;;5038012;28;20310;-21
2023/05/24 03:47:46;;;;;;;;;;;;;;;;;;5038012;28;20397;-19
2023/05/24 03:50:13;;;;;;;;;;;;;;;;;;5038167;28;19978;-21
2023/05/24 03:52:39;;;;;;;;;;;;;;;;;;5036667;28;19951;-20
2023/05/24 03:55:05;;;;;;;;;;;;;;;;;;5037676;28;20037;-20
2023/05/24 03:57:30;;;;;;;;;;;;;;;;;;5037728;28;19909;-20
2023/05/24 03:59:57;;;;;;;;;;;;;;;;;;5037905;28;19928;-21
2023/05/24 04:02:23;;;;;;;;;;;;;;;;;;5037377;28;19909;-23
2023/05/24 04:04:49;;;;;;;;;;;;;;;;;;5037837;28;19936;-21
2023/05/24 04:07:15;;;;;;;;;;;;;;;;;;5037797;28;20405;-22
2023/05/24 04:09:41;;;;;;;;;;;;;;;;;;5037216;28;19959;-19
2023/05/24 04:12:07;;;;;;;;;;;;;;;;;;5037472;28;19913;-20
2023/05/24 04:14:34;;;;;;;;;;;;;;;;;;5037369;28;19920;-22
2023/05/24 04:17:03;;;;;;;;;;;;;;;;;;5037266;28;19919;-20
2023/05/24 04:19:28;;;;;;;;;;;;;;;;;;5037233;28;19909;-21
2023/05/24 04:21:54;;;;;;;;;;;;;;;;;;5037020;28;19975;-21
2023/05/24 04:24:20;;;;;;;;;;;;;;;;;;5037202;28;19909;-20
2023/05/24 04:26:46;;;;;;;;;;;;;;;;;;5037247;28;20410;-20
2023/05/24 04:29:13;;;;;;;;;;;;;;;;;;5036969;28;19952;-22
2023/05/24 04:31:38;;;;;;;;;;;;;;;;;;5037004;28;19955;-20
2023/05/24 04:34:06;;;;;;;;;;;;;;;;;;5035552;28;19913;-21
2023/05/24 04:36:34;;;;;;;;;;;;;;;;;;5036539;28;19913;-22
2023/05/24 04:39:03;;;;;;;;;;;;;;;;;;5036696;28;19920;-21
2023/05/24 04:41:34;;;;;;;;;;;;;;;;;;5035963;28;19912;-20
2023/05/24 04:44:00;;;;;;;;;;;;;;;;;;5036648;28;20344;-20
2023/05/24 04:46:26;;;;;;;;;;;;;;;;;;5036812;28;19913;-21
2023/05/24 04:48:52;;;;;;;;;;;;;;;;;;5036613;28;19913;-24
2023/05/24 04:51:18;;;;;;;;;;;;;;;;;;5035573;28;20260;-20
2023/05/24 04:53:44;;;;;;;;;;;;;;;;;;5035129;28;19916;-20
2023/05/24 04:56:13;;;;;;;;;;;;;;;;;;5036385;28;20057;-21
2023/05/24 04:58:39;;;;;;;;;;;;;;;;;;5036312;28;19920;-22
2023/05/24 05:01:05;;;;;;;;;;;;;;;;;;5036028;28;19921;-20
2023/05/24 05:03:31;;;;;;;;;;;;;;;;;;5035667;28;19921;-21
2023/05/24 05:05:58;;;;;;;;;;;;;;;;;;5036088;28;19913;-21
2023/05/24 05:08:24;;;;;;;;;;;;;;;;;;5036191;28;20316;-21
2023/05/24 05:10:50;;;;;;;;;;;;;;;;;;5036092;28;19909;-20
2023/05/24 05:13:16;;;;;;;;;;;;;;;;;;5035934;28;19909;-21
2023/05/24 05:15:42;;;;;;;;;;;;;;;;;;5034968;28;19909;-21
2023/05/24 05:18:08;;;;;;;;;;;;;;;;;;5035914;28;19951;-20
2023/05/24 05:20:34;;;;;;;;;;;;;;;;;;5036055;28;19913;-21
2023/05/24 05:23:00;;;;;;;;;;;;;;;;;;5036004;28;20289;-21
2023/05/24 05:25:26;;;;;;;;;;;;;;;;;;5036232;28;19998;-21
2023/05/24 05:27:52;;;;;;;;;;;;;;;;;;5035847;28;20010;-20
2023/05/24 05:30:18;;;;;;;;;;;;;;;;;;5035556;28;19909;-21
2023/05/24 05:32:44;;;;;;;;;;;;;;;;;;5035449;28;19909;-19
2023/05/24 05:35:10;;;;;;;;;;;;;;;;;;5035276;28;19913;-22
2023/05/24 05:37:36;;;;;;;;;;;;;;;;;;5035370;28;20428;-23
2023/05/24 05:40:03;;;;;;;;;;;;;;;;;;5034116;28;19924;-21
2023/05/24 05:42:29;;;;;;;;;;;;;;;;;;5035174;28;19928;-22
2023/05/24 05:44:55;;;;;;;;;;;;;;;;;;5035550;28;20241;-22
2023/05/24 05:47:21;;;;;;;;;;;;;;;;;;5035386;28;19917;-20
2023/05/24 05:49:47;;;;;;;;;;;;;;;;;;5034208;28;19932;-19
2023/05/24 05:52:13;;;;;;;;;;;;;;;;;;5034137;28;20264;-21
2023/05/24 05:54:39;;;;;;;;;;;;;;;;;;5034169;28;20225;-21
2023/05/24 05:57:06;;;;;;;;;;;;;;;;;;5034771;28;19917;-22
2023/05/24 05:59:34;;;;;;;;;;;;;;;;;;5034832;28;19948;-21
2023/05/24 06:02:00;;;;;;;;;;;;;;;;;;5034616;28;19913;-21
2023/05/24 06:04:27;;;;;;;;;;;;;;;;;;5034768;28;19921;-21
2023/05/24 06:06:53;;;;;;;;;;;;;;;;;;5034774;28;19912;-21
2023/05/24 06:09:18;;;;;;;;;;;;;;;;;;5034329;28;19909;-21
2023/05/24 06:11:44;;;;;;;;;;;;;;;;;;5034298;28;19905;-22
2023/05/24 06:14:17;;;;;;;;;;;;;;;;;;5033900;28;20248;-21
2023/05/24 06:16:44;;;;;;;;;;;;;;;;;;5032769;28;19913;-21
2023/05/24 06:19:10;;;;;;;;;;;;;;;;;;5033268;28;19917;-22
2023/05/24 06:21:36;;;;;;;;;;;;;;;;;;5033840;28;20011;-22
2023/05/24 06:24:03;;;;;;;;;;;;;;;;;;5033841;28;20336;-21
2023/05/24 06:26:29;;;;;;;;;;;;;;;;;;5033976;28;19909;-20
2023/05/24 06:28:55;;;;;;;;;;;;;;;;;;5033712;28;19909;-20
2023/05/24 06:31:20;;;;;;;;;;;;;;;;;;5033733;28;20034;-21
2023/05/24 06:33:46;;;;;;;;;;;;;;;;;;5033754;28;20295;-22
2023/05/24 06:36:12;;;;;;;;;;;;;;;;;;5033643;28;20370;-23
2023/05/24 06:38:38;;;;;;;;;;;;;;;;;;5033857;28;19909;-22
2023/05/24 06:41:05;;;;;;;;;;;;;;;;;;5034455;28;20029;-21
2023/05/24 06:43:32;;;;;;;;;;;;;;;;;;5034203;28;20312;-20
2023/05/24 06:45:58;;;;;;;;;;;;;;;;;;5034302;28;19909;-20
2023/05/24 06:48:24;;;;;;;;;;;;;;;;;;5034310;28;20263;-20
2023/05/24 06:50:50;;;;;;;;;;;;;;;;;;5034411;28;19909;-22
2023/05/24 06:53:16;;;;;;;;;;;;;;;;;;5033145;28;19924;-21
2023/05/24 06:55:42;;;;;;;;;;;;;;;;;;5034180;28;20000;-20
2023/05/24 06:58:13;;;;;;;;;;;;;;;;;;5034666;28;20332;-20
2023/05/24 07:00:39;;;;;;;;;;;;;;;;;;5033678;28;19952;-20
2023/05/24 07:03:05;;;;;;;;;;;;;;;;;;5034054;28;19928;-23
2023/05/24 07:05:31;;;;;;;;;;;;;;;;;;5034028;28;19999;-21
2023/05/24 07:07:57;;;;;;;;;;;;;;;;;;5033995;28;19939;-21
2023/05/24 07:10:23;;;;;;;;;;;;;;;;;;5034137;28;19917;-21
2023/05/24 07:12:49;;;;;;;;;;;;;;;;;;5033813;28;19913;-20
2023/05/24 07:15:15;;;;;;;;;;;;;;;;;;5033005;28;19909;-22
2023/05/24 07:17:41;;;;;;;;;;;;;;;;;;5034078;28;19932;-21
2023/05/24 07:20:10;;;;;;;;;;;;;;;;;;5033786;28;20019;-21
2023/05/24 07:22:36;;;;;;;;;;;;;;;;;;5033750;28;19913;-20
2023/05/24 07:25:02;;;;;;;;;;;;;;;;;;5034123;28;19967;-23
2023/05/24 07:27:27;;;;;;;;;;;;;;;;;;5033798;28;19909;-22
2023/05/24 07:29:53;;;;;;;;;;;;;;;;;;5033639;28;20225;-21
2023/05/24 07:32:19;;;;;;;;;;;;;;;;;;5033956;28;19909;-21
2023/05/24 07:34:45;;;;;;;;;;;;;;;;;;5033824;28;19971;-20
2023/05/24 07:37:11;;;;;;;;;;;;;;;;;;5033758;28;20359;-26
2023/05/24 07:39:37;;;;;;;;;;;;;;;;;;5032482;28;20367;-21
2023/05/24 07:42:03;;;;;;;;;;;;;;;;;;5033537;28;20356;-22
2023/05/24 07:44:29;;;;;;;;;;;;;;;;;;5033870;28;19909;-21
2023/05/24 07:46:55;;;;;;;;;;;;;;;;;;5032849;28;20091;-21
2023/05/24 07:49:21;;;;;;;;;;;;;;;;;;5034129;28;19909;-20
2023/05/24 07:51:48;;;;;;;;;;;;;;;;;;5032675;28;19945;-20
2023/05/24 07:54:14;;;;;;;;;;;;;;;;;;5034107;28;19909;-21
2023/05/24 07:56:40;;;;;;;;;;;;;;;;;;5033771;28;20000;-21
2023/05/24 07:59:07;;;;;;;;;;;;;;;;;;5032811;28;20367;-20
2023/05/24 08:01:33;;;;;;;;;;;;;;;;;;5033688;28;19913;-22
2023/05/24 08:03:59;;;;;;;;;;;;;;;;;;5032457;28;19929;-22
2023/05/24 08:06:26;;;;;;;;;;;;;;;;;;5034205;28;19950;-26
2023/05/24 08:08:52;;;;;;;;;;;;;;;;;;5033700;28;20255;-21
2023/05/24 08:11:18;;;;;;;;;;;;;;;;;;5033682;28;19951;-23
2023/05/24 08:13:44;;;;;;;;;;;;;;;;;;5033372;28;19970;-20
2023/05/24 08:16:10;;;;;;;;;;;;;;;;;;5033171;28;20237;-20
2023/05/24 08:18:36;;;;;;;;;;;;;;;;;;5035424;28;20051;-22
2023/05/24 08:21:02;;;;;;;;;;;;;;;;;;5037047;28;20204;-20
2023/05/24 08:23:32;;;;;;;;;;;;;;;;;;5037302;28;20340;-22
2023/05/24 08:25:58;;;;;;;;;;;;;;;;;;5037235;28;20294;-20
2023/05/24 08:28:24;;;;;;;;;;;;;;;;;;5037610;28;19909;-21
2023/05/24 08:30:50;;;;;;;;;;;;;;;;;;5036225;28;19920;-20
2023/05/24 08:33:16;;;;;;;;;;;;;;;;;;5037080;28;19928;-21
2023/05/24 08:35:42;;;;;;;;;;;;;;;;;;5037049;28;20283;-22
2023/05/24 08:38:08;;;;;;;;;;;;;;;;;;5036929;28;19909;-23
2023/05/24 08:40:34;;;;;;;;;;;;;;;;;;5036889;28;19913;-22
2023/05/24 08:43:00;;;;;;;;;;;;;;;;;;5036718;28;19909;-20
2023/05/24 08:45:26;;;;;;;;;;;;;;;;;;5036299;28;19938;-20
2023/05/24 08:47:52;;;;;;;;;;;;;;;;;;5036277;28;20008;-20
2023/05/24 08:50:18;;;;;;;;;;;;;;;;;;5034968;28;19924;-21
2023/05/24 08:52:44;;;;;;;;;;;;;;;;;;5036018;28;19917;-23
2023/05/24 08:55:10;;;;;;;;;;;;;;;;;;5036200;28;19949;-23
2023/05/24 08:57:40;;;;;;;;;;;;;;;;;;5036309;28;19909;-22
2023/05/24 09:00:06;;;;;;;;;;;;;;;;;;5036040;28;19913;-22
2023/05/24 09:02:32;;;;;;;;;;;;;;;;;;5034540;28;19931;-28
2023/05/24 09:04:58;;;;;;;;;;;;;;;;;;5036235;28;19905;-24
2023/05/24 09:07:24;;;;;;;;;;;;;;;;;;5036038;28;19910;-26
2023/05/24 09:09:50;;;;;;;;;;;;;;;;;;5036070;28;19951;-24
2023/05/24 09:12:16;;;;;;;;;;;;;;;;;;5034675;28;20286;-23
2023/05/24 09:14:42;;;;;;;;;;;;;;;;;;5035664;28;20289;-25
2023/05/24 09:17:08;;;;;;;;;;;;;;;;;;5034648;28;19971;-22
2023/05/24 09:19:33;;;;;;;;;;;;;;;;;;5034649;28;19911;-24
2023/05/24 09:21:59;;;;;;;;;;;;;;;;;;5035642;28;20395;-23
2023/05/24 09:24:26;;;;;;;;;;;;;;;;;;5035392;28;19913;-27
2023/05/24 09:26:52;;;;;;;;;;;;;;;;;;5036108;28;19984;-25
2023/05/24 09:29:18;;;;;;;;;;;;;;;;;;5034852;28;19996;-25
2023/05/24 09:31:44;;;;;;;;;;;;;;;;;;5036277;28;19965;-23
2023/05/24 09:34:10;;;;;;;;;;;;;;;;;;5035912;28;19935;-28
2023/05/24 09:36:37;;;;;;;;;;;;;;;;;;5035447;28;19905;-22
2023/05/24 09:39:03;;;;;;;;;;;;;;;;;;5035542;28;20304;-24
2023/05/24 09:41:29;;;;;;;;;;;;;;;;;;5035601;28;19920;-22
2023/05/24 09:43:55;;;;;;;;;;;;;;;;;;5035320;28;19920;-24
2023/05/24 09:46:21;;;;;;;;;;;;;;;;;;5035365;28;19944;-25
2023/05/24 09:48:47;;;;;;;;;;;;;;;;;;5035336;28;19909;-22
2023/05/24 09:51:15;;;;;;;;;;;;;;;;;;5035580;28;20296;-27
2023/05/24 09:53:41;;;;;;;;;;;;;;;;;;5035595;28;19909;-27
2023/05/24 09:56:10;;;;;;;;;;;;;;;;;;5035363;28;19910;-26
2023/05/24 09:58:36;;;;;;;;;;;;;;;;;;5035474;28;20186;-25
2023/05/24 10:01:02;;;;;;;;;;;;;;;;;;5034338;28;19947;-29
2023/05/24 10:03:27;;;;;;;;;;;;;;;;;;5035163;28;19960;-24
2023/05/24 10:05:54;;;;;;;;;;;;;;;;;;5035306;28;20220;-24
2023/05/24 10:08:21;;;;;;;;;;;;;;;;;;5035229;28;19909;-25
2023/05/24 10:10:47;;;;;;;;;;;;;;;;;;5035201;28;19916;-24
2023/05/24 10:13:14;;;;;;;;;;;;;;;;;;5035024;28;19909;-27
2023/05/24 10:15:40;;;;;;;;;;;;;;;;;;5034950;28;19956;-25
2023/05/24 10:18:07;;;;;;;;;;;;;;;;;;5035231;28;19909;-27
2023/05/24 10:20:34;;;;;;;;;;;;;;;;;;5035207;28;19917;-25
2023/05/24 10:23:03;;;;;;;;;;;;;;;;;;5035378;28;19973;-25
2023/05/24 10:25:29;;;;;;;;;;;;;;;;;;5035203;28;19909;-25
2023/05/24 10:27:55;;;;;;;;;;;;;;;;;;5035169;28;20402;-31
2023/05/24 10:30:21;;;;;;;;;;;;;;;;;;5034755;28;19916;-22
2023/05/24 10:32:47;;;;;;;;;;;;;;;;;;5034886;28;20225;-27
2023/05/24 10:35:13;;;;;;;;;;;;;;;;;;5034758;28;19916;-27
2023/05/24 10:37:40;;;;;;;;;;;;;;;;;;5035055;28;19909;-23
2023/05/24 10:40:08;;;;;;;;;;;;;;;;;;5034209;28;19932;-25
2023/05/24 10:42:34;;;;;;;;;;;;;;;;;;5034595;28;20355;-28
2023/05/24 10:45:00;;;;;;;;;;;;;;;;;;5034579;28;19909;-25
2023/05/24 10:47:30;;;;;;;;;;;;;;;;;;5034408;28;19909;-26
2023/05/24 10:49:58;;;;;;;;;;;;;;;;;;5034764;28;19913;-26
2023/05/24 10:52:23;;;;;;;;;;;;;;;;;;5034843;28;19917;-24
2023/05/24 10:54:50;;;;;;;;;;;;;;;;;;5034343;28;19914;-28
2023/05/24 10:57:16;;;;;;;;;;;;;;;;;;5034167;28;20013;-26
2023/05/24 10:59:44;;;;;;;;;;;;;;;;;;5034402;28;19948;-24
2023/05/24 11:02:13;;;;;;;;;;;;;;;;;;5033608;28;19913;-27
2023/05/24 11:04:39;;;;;;;;;;;;;;;;;;5034068;28;19909;-28
2023/05/24 11:07:08;;;;;;;;;;;;;;;;;;5033899;28;19913;-27
2023/05/24 11:09:34;;;;;;;;;;;;;;;;;;5033621;28;19920;-30
2023/05/24 11:12:01;;;;;;;;;;;;;;;;;;5033713;28;19909;-26
2023/05/24 11:14:27;;;;;;;;;;;;;;;;;;5033748;28;20051;-27
2023/05/24 11:16:53;;;;;;;;;;;;;;;;;;5034634;28;19917;-21
2023/05/24 11:19:19;;;;;;;;;;;;;;;;;;5032597;28;19929;-28
2023/05/24 11:21:45;;;;;;;;;;;;;;;;;;5033554;28;19917;-26
2023/05/24 11:24:11;;;;;;;;;;;;;;;;;;5034015;28;19916;-28
2023/05/24 11:26:37;;;;;;;;;;;;;;;;;;5033784;28;19909;-28
2023/05/24 11:29:05;;;;;;;;;;;;;;;;;;5033877;28;19929;-34
2023/05/24 11:31:31;;;;;;;;;;;;;;;;;;5033859;28;20400;-27
2023/05/24 11:33:57;;;;;;;;;;;;;;;;;;5033752;28;19936;-23
2023/05/24 11:36:24;;;;;;;;;;;;;;;;;;5034063;28;19909;-27
2023/05/24 11:38:51;;;;;;;;;;;;;;;;;;5033931;28;20328;-24
2023/05/24 11:41:17;;;;;;;;;;;;;;;;;;5033719;28;19932;-27
2023/05/24 11:43:43;;;;;;;;;;;;;;;;;;5033727;28;20229;-34
2023/05/24 11:46:09;;;;;;;;;;;;;;;;;;5033969;28;20339;-25
2023/05/24 11:48:34;;;;;;;;;;;;;;;;;;5033847;28;19970;-30
2023/05/24 11:51:03;;;;;;;;;;;;;;;;;;5033500;28;20364;-27
2023/05/24 11:53:30;;;;;;;;;;;;;;;;;;5037022;28;19909;-24
2023/05/24 11:55:56;;;;;;;;;;;;;;;;;;5037586;28;19924;-24
2023/05/24 11:58:22;;;;;;;;;;;;;;;;;;5037782;28;19909;-27
2023/05/24 12:00:48;;;;;;;;;;;;;;;;;;5037182;28;19935;-26
2023/05/24 12:03:14;;;;;;;;;;;;;;;;;;5037127;28;20299;-26
2023/05/24 12:05:42;;;;;;;;;;;;;;;;;;5035846;28;20329;-27
2023/05/24 12:08:08;;;;;;;;;;;;;;;;;;5037352;28;20225;-27
2023/05/24 12:10:34;;;;;;;;;;;;;;;;;;5036176;28;19935;-30
2023/05/24 12:13:00;;;;;;;;;;;;;;;;;;5036026;28;20406;-28
2023/05/24 12:15:26;;;;;;;;;;;;;;;;;;5037048;28;19913;-27
2023/05/24 12:17:52;;;;;;;;;;;;;;;;;;5036872;28;19924;-28
2023/05/24 12:20:19;;;;;;;;;;;;;;;;;;5036832;28;19913;-24
2023/05/24 12:22:45;;;;;;;;;;;;;;;;;;5037003;28;19935;-28
2023/05/24 12:25:11;;;;;;;;;;;;;;;;;;5036981;28;19967;-26
2023/05/24 12:27:37;;;;;;;;;;;;;;;;;;5037002;28;19909;-22
2023/05/24 12:30:03;;;;;;;;;;;;;;;;;;5036816;28;19909;-28
2023/05/24 12:32:29;;;;;;;;;;;;;;;;;;5036801;28;19909;-24
2023/05/24 12:34:55;;;;;;;;;;;;;;;;;;5036877;28;20102;-24
2023/05/24 12:37:21;;;;;;;;;;;;;;;;;;5036738;28;19920;-22
2023/05/24 12:39:47;;;;;;;;;;;;;;;;;;5036819;28;19959;-24
2023/05/24 12:42:13;;;;;;;;;;;;;;;;;;5036822;28;19913;-25
2023/05/24 12:44:39;;;;;;;;;;;;;;;;;;5037128;28;20367;-24
2023/05/24 12:47:08;;;;;;;;;;;;;;;;;;5036826;28;19909;-23
2023/05/24 12:49:34;;;;;;;;;;;;;;;;;;5036776;28;19947;-26
2023/05/24 12:52:03;;;;;;;;;;;;;;;;;;5036556;28;19966;-25
2023/05/24 12:54:29;;;;;;;;;;;;;;;;;;5036597;28;19909;-22
2023/05/24 12:56:55;;;;;;;;;;;;;;;;;;5036718;28;19921;-24
2023/05/24 12:59:21;;;;;;;;;;;;;;;;;;5035333;28;20229;-23
2023/05/24 13:01:50;;;;;;;;;;;;;;;;;;5036329;28;19913;-22
2023/05/24 13:04:16;;;;;;;;;;;;;;;;;;5035947;28;19925;-21
2023/05/24 13:06:42;;;;;;;;;;;;;;;;;;5036923;28;19912;-22
2023/05/24 13:09:08;;;;;;;;;;;;;;;;;;5036294;28;20008;-25
2023/05/24 13:11:35;;;;;;;;;;;;;;;;;;5036644;28;20003;-24
2023/05/24 13:14:01;;;;;;;;;;;;;;;;;;5036342;28;20328;-25
2023/05/24 13:16:27;;;;;;;;;;;;;;;;;;5036298;28;19905;-21
2023/05/24 13:18:53;;;;;;;;;;;;;;;;;;5036673;28;19932;-23
2023/05/24 13:21:19;;;;;;;;;;;;;;;;;;5036512;28;19914;-22
2023/05/24 13:23:45;;;;;;;;;;;;;;;;;;5036231;28;19915;-26
2023/05/24 13:26:11;;;;;;;;;;;;;;;;;;5036137;28;20340;-24
2023/05/24 13:28:37;;;;;;;;;;;;;;;;;;5036284;28;20012;-25
2023/05/24 13:31:03;;;;;;;;;;;;;;;;;;5035592;28;20016;-27
2023/05/24 13:33:29;;;;;;;;;;;;;;;;;;5036262;28;19959;-22
2023/05/24 13:35:56;;;;;;;;;;;;;;;;;;5036204;28;19917;-24
2023/05/24 13:38:22;;;;;;;;;;;;;;;;;;5035920;28;19992;-27
2023/05/24 13:40:48;;;;;;;;;;;;;;;;;;5035577;28;20020;-25
2023/05/24 13:43:14;;;;;;;;;;;;;;;;;;5035673;28;19909;-24
2023/05/24 13:45:40;;;;;;;;;;;;;;;;;;5036199;28;19909;-28
2023/05/24 13:48:06;;;;;;;;;;;;;;;;;;5034495;28;20039;-22
2023/05/24 13:50:32;;;;;;;;;;;;;;;;;;5035924;28;19917;-25
2023/05/24 13:52:59;;;;;;;;;;;;;;;;;;5035826;28;20318;-23
2023/05/24 13:55:26;;;;;;;;;;;;;;;;;;5035516;28;20336;-22
2023/05/24 13:57:54;;;;;;;;;;;;;;;;;;5035521;28;19909;-26
2023/05/24 14:00:20;;;;;;;;;;;;;;;;;;5035363;28;19909;-22
2023/05/24 14:02:46;;;;;;;;;;;;;;;;;;5035225;28;20004;-24
2023/05/24 14:05:12;;;;;;;;;;;;;;;;;;5035754;28;19909;-26
2023/05/24 14:07:38;;;;;;;;;;;;;;;;;;5035457;28;20259;-26
2023/05/24 14:10:04;;;;;;;;;;;;;;;;;;5034260;28;19955;-26
2023/05/24 14:12:30;;;;;;;;;;;;;;;;;;5035236;28;20377;-25
2023/05/24 14:14:56;;;;;;;;;;;;;;;;;;5034535;28;19948;-24
2023/05/24 14:17:22;;;;;;;;;;;;;;;;;;5035061;28;19949;-24
2023/05/24 14:19:48;;;;;;;;;;;;;;;;;;5034951;28;19909;-26
2023/05/24 14:22:14;;;;;;;;;;;;;;;;;;5035290;28;19913;-22
2023/05/24 14:24:40;;;;;;;;;;;;;;;;;;5034883;28;20312;-26
2023/05/24 14:27:06;;;;;;;;;;;;;;;;;;5035134;28;19913;-27
2023/05/24 14:29:32;;;;;;;;;;;;;;;;;;5035153;28;19909;-27
2023/05/24 14:31:58;;;;;;;;;;;;;;;;;;5033765;28;20012;-25
2023/05/24 14:34:24;;;;;;;;;;;;;;;;;;5035199;28;19944;-28
2023/05/24 14:36:50;;;;;;;;;;;;;;;;;;5035163;28;19909;-26
2023/05/24 14:39:16;;;;;;;;;;;;;;;;;;5035201;28;20000;-19
2023/05/24 14:41:42;;;;;;;;;;;;;;;;;;5034867;28;19919;-22
2023/05/24 14:44:07;;;;;;;;;;;;;;;;;;5034556;28;20359;-24
2023/05/24 14:46:34;;;;;;;;;;;;;;;;;;5034608;28;19909;-22
2023/05/24 14:49:01;;;;;;;;;;;;;;;;;;5034657;28;19929;-25
2023/05/24 14:51:27;;;;;;;;;;;;;;;;;;5033409;28;19920;-23
2023/05/24 14:53:53;;;;;;;;;;;;;;;;;;5034198;28;19909;-26
2023/05/24 14:56:19;;;;;;;;;;;;;;;;;;5034152;28;19921;-25
2023/05/24 14:58:45;;;;;;;;;;;;;;;;;;5034735;28;19920;-25
2023/05/24 15:01:11;;;;;;;;;;;;;;;;;;5033103;28;19913;-23
2023/05/24 15:03:36;;;;;;;;;;;;;;;;;;5034269;28;19996;-26
2023/05/24 15:06:02;;;;;;;;;;;;;;;;;;5034497;28;19909;-23
2023/05/24 15:08:28;;;;;;;;;;;;;;;;;;5034568;28;20348;-22
2023/05/24 15:10:55;;;;;;;;;;;;;;;;;;5034057;28;19977;-23
2023/05/24 15:13:21;;;;;;;;;;;;;;;;;;5033627;28;19909;-25
2023/05/24 15:15:47;;;;;;;;;;;;;;;;;;5032459;28;20340;-23
2023/05/24 15:18:13;;;;;;;;;;;;;;;;;;5033488;28;19914;-24
2023/05/24 15:20:39;;;;;;;;;;;;;;;;;;5033582;28;19913;-25
2023/05/24 15:23:09;;;;;;;;;;;;;;;;;;5033368;28;19972;-25
2023/05/24 15:25:35;;;;;;;;;;;;;;;;;;5033545;28;20256;-24
2023/05/24 15:28:01;;;;;;;;;;;;;;;;;;5037743;28;19916;-28
2023/05/24 15:30:27;;;;;;;;;;;;;;;;;;5037346;28;19967;-22
2023/05/24 15:32:53;;;;;;;;;;;;;;;;;;5036186;28;19909;-22
2023/05/24 15:35:20;;;;;;;;;;;;;;;;;;5037585;28;19917;-25
2023/05/24 15:37:46;;;;;;;;;;;;;;;;;;5037559;28;20263;-22
2023/05/24 15:40:12;;;;;;;;;;;;;;;;;;5037074;28;20022;-27
2023/05/24 15:42:38;;;;;;;;;;;;;;;;;;5037395;28;20008;-26
2023/05/24 15:45:04;;;;;;;;;;;;;;;;;;5038060;28;19960;-25
2023/05/24 15:47:35;;;;;;;;;;;;;;;;;;5037760;28;20344;-25
2023/05/24 15:50:00;;;;;;;;;;;;;;;;;;5037939;28;19916;-24
2023/05/24 15:52:26;;;;;;;;;;;;;;;;;;5037990;28;20000;-26
2023/05/24 15:54:52;;;;;;;;;;;;;;;;;;5037708;28;19921;-25
2023/05/24 15:57:18;;;;;;;;;;;;;;;;;;5037542;28;19909;-26
2023/05/24 15:59:44;;;;;;;;;;;;;;;;;;5038085;28;19959;-24
2023/05/24 16:02:10;;;;;;;;;;;;;;;;;;5036057;28;19913;-23
2023/05/24 16:04:36;;;;;;;;;;;;;;;;;;5037257;28;20378;-22
2023/05/24 16:07:02;;;;;;;;;;;;;;;;;;5037496;28;19939;-24
2023/05/24 16:09:28;;;;;;;;;;;;;;;;;;5037432;28;19971;-29
2023/05/24 16:11:54;;;;;;;;;;;;;;;;;;5037320;28;19909;-26
2023/05/24 16:14:20;;;;;;;;;;;;;;;;;;5037453;28;20000;-24
2023/05/24 16:16:46;;;;;;;;;;;;;;;;;;5037392;28;19913;-26
2023/05/24 16:19:12;;;;;;;;;;;;;;;;;;5037420;28;20336;-23
2023/05/24 16:21:38;;;;;;;;;;;;;;;;;;5037231;28;20264;-27
2023/05/24 16:24:04;;;;;;;;;;;;;;;;;;5037122;28;19931;-22
2023/05/24 16:26:30;;;;;;;;;;;;;;;;;;5036968;28;19949;-28
2023/05/24 16:28:56;;;;;;;;;;;;;;;;;;5037076;28;19910;-22
2023/05/24 16:31:22;;;;;;;;;;;;;;;;;;5038005;28;20419;-25
2023/05/24 16:33:48;;;;;;;;;;;;;;;;;;5036998;28;19956;-27
2023/05/24 16:36:15;;;;;;;;;;;;;;;;;;5037567;28;19913;-22
2023/05/24 16:38:41;;;;;;;;;;;;;;;;;;5036244;28;19913;-22